createdAt,value
2022-11-29T00:03:43.604Z,29.00
2022-11-29T00:07:43.972Z,31.97
2022-11-29T00:11:57.874Z,31.87
2022-11-29T00:16:06.392Z,25.27
2022-11-29T00:20:07.870Z,28.17
2022-11-29T00:24:10.204Z,28.17
2022-11-29T00:28:10.274Z,27.93
2022-11-29T00:32:13.202Z,28.77
2022-11-29T00:36:13.848Z,27.63
2022-11-29T00:40:15.294Z,30.73
2022-11-29T00:44:19.940Z,31.27
2022-11-29T00:48:23.222Z,32.60
2022-11-29T00:52:23.265Z,33.77
2022-11-29T00:56:23.525Z,30.33
2022-11-29T01:00:24.453Z,33.37
2022-11-29T01:04:27.181Z,32.40
2022-11-29T01:08:27.362Z,39.30
2022-11-29T01:12:27.601Z,37.03
2022-11-29T01:16:28.592Z,38.30
2022-11-29T01:20:31.497Z,35.33
2022-11-29T01:24:32.929Z,32.67
2022-11-29T01:28:33.167Z,31.50
2022-11-29T01:32:33.845Z,31.73
2022-11-29T01:36:37.513Z,33.03
2022-11-29T01:40:37.705Z,36.67
2022-11-29T01:45:24.483Z,31.23
2022-11-29T01:49:30.741Z,34.43
2022-11-29T01:53:33.507Z,35.27
2022-11-29T01:57:35.788Z,37.40
2022-11-29T02:01:36.662Z,42.97
2022-11-29T02:05:37.078Z,46.13
2022-11-29T02:09:39.791Z,43.43
2022-11-29T02:13:56.577Z,37.17
2022-11-29T02:18:09.318Z,37.00
2022-11-29T02:22:17.394Z,37.60
2022-11-29T02:26:47.595Z,36.63
2022-11-29T02:31:16.116Z,37.07
2022-11-29T02:35:44.975Z,36.80
2022-11-29T02:40:09.831Z,34.20
2022-11-29T02:44:46.972Z,36.70
2022-11-29T02:49:07.313Z,34.17
2022-11-29T02:53:22.926Z,36.67
2022-11-29T02:57:36.688Z,36.57
2022-11-29T03:01:51.377Z,34.70
2022-11-29T03:06:00.581Z,34.73
2022-11-29T03:10:13.685Z,37.87
2022-11-29T03:14:26.909Z,36.83
2022-11-29T03:18:50.881Z,35.00
2022-11-29T03:23:11.074Z,38.90
2022-11-29T03:27:19.798Z,36.90
2022-11-29T03:31:31.241Z,34.83
2022-11-29T03:35:43.585Z,36.73
2022-11-29T03:39:56.844Z,34.57
2022-11-29T03:44:12.264Z,39.30
2022-11-29T03:48:20.305Z,34.53
2022-11-29T03:52:29.587Z,33.20
2022-11-29T03:56:34.770Z,35.97
2022-11-29T04:00:57.116Z,34.20
2022-11-29T04:05:45.155Z,34.80
2022-11-29T04:10:14.512Z,35.23
2022-11-29T04:15:04.439Z,32.80
2022-11-29T04:19:52.636Z,34.30
2022-11-29T04:24:30.059Z,37.27
2022-11-29T04:29:11.494Z,36.60
2022-11-29T04:34:01.927Z,36.40
2022-11-29T04:39:03.205Z,36.60
2022-11-29T04:43:36.197Z,34.93
2022-11-29T04:47:57.062Z,35.90
2022-11-29T04:52:30.086Z,33.70
2022-11-29T04:56:45.858Z,35.03
2022-11-29T05:00:58.925Z,34.93
2022-11-29T05:05:14.784Z,32.63
2022-11-29T05:09:28.766Z,35.13
2022-11-29T05:13:47.017Z,33.97
2022-11-29T05:18:12.508Z,32.37
2022-11-29T05:22:31.597Z,34.87
2022-11-29T05:26:41.066Z,33.50
2022-11-29T05:31:26.780Z,35.80
2022-11-29T05:35:54.974Z,36.90
2022-11-29T05:40:23.013Z,33.07
2022-11-29T05:44:34.412Z,37.47
2022-11-29T05:48:50.250Z,39.57
2022-11-29T05:53:01.763Z,35.00
2022-11-29T05:57:15.611Z,33.73
2022-11-29T06:01:25.637Z,37.93
2022-11-29T06:05:38.647Z,38.10
2022-11-29T06:09:50.066Z,42.87
2022-11-29T06:14:05.860Z,46.30
2022-11-29T06:18:31.887Z,41.13
2022-11-29T06:23:10.708Z,39.73
2022-11-29T06:27:36.524Z,41.10
2022-11-29T06:31:44.702Z,41.53
2022-11-29T06:35:53.866Z,38.03
2022-11-29T06:39:58.087Z,39.70
2022-11-29T06:43:59.408Z,39.93
2022-11-29T06:48:06.262Z,39.53
2022-11-29T06:52:23.686Z,39.30
2022-11-29T06:56:40.752Z,39.47
2022-11-29T07:00:54.737Z,39.90
2022-11-29T07:05:13.211Z,42.80
2022-11-29T07:09:20.611Z,43.57
2022-11-29T07:13:24.965Z,39.40
2022-11-29T07:17:33.853Z,42.17
2022-11-29T07:21:54.330Z,43.43
2022-11-29T07:26:11.515Z,42.00
2022-11-29T07:30:21.939Z,38.33
2022-11-29T07:34:35.456Z,40.83
2022-11-29T07:38:52.264Z,39.50
2022-11-29T07:43:10.854Z,40.17
2022-11-29T07:47:14.229Z,37.33
2022-11-29T07:51:14.546Z,39.43
2022-11-29T07:55:18.852Z,35.57
2022-11-29T07:59:20.146Z,36.23
2022-11-29T08:03:22.857Z,36.50
2022-11-29T08:07:23.015Z,41.10
2022-11-29T08:11:23.134Z,39.73
2022-11-29T08:15:26.023Z,36.43
2022-11-29T08:19:28.702Z,49.47
2022-11-29T08:23:29.034Z,36.57
2022-11-29T08:27:29.325Z,39.60
2022-11-29T08:31:29.423Z,36.57
2022-11-29T08:35:34.457Z,40.77
2022-11-29T08:39:34.509Z,39.20
2022-11-29T08:43:35.255Z,39.77
2022-11-29T08:47:38.932Z,40.57
2022-11-29T08:51:44.450Z,37.83
2022-11-29T08:55:46.763Z,38.60
2022-11-29T08:59:46.893Z,39.73
2022-11-29T09:04:07.114Z,37.50
2022-11-29T09:08:09.843Z,38.30
2022-11-29T09:12:10.351Z,40.83
2022-11-29T09:16:13.109Z,38.80
2022-11-29T09:20:14.962Z,36.60
2022-11-29T09:24:18.763Z,37.10
2022-11-29T09:28:19.035Z,36.60
2022-11-29T09:32:19.194Z,36.07
2022-11-29T09:36:23.762Z,36.17
2022-11-29T09:40:36.728Z,36.30
2022-11-29T09:44:53.942Z,35.67
2022-11-29T09:49:22.056Z,35.27
2022-11-29T09:53:38.469Z,31.77
2022-11-29T09:57:44.027Z,35.87
2022-11-29T10:01:50.425Z,34.00
2022-11-29T10:05:57.576Z,32.40
2022-11-29T10:10:05.987Z,34.20
2022-11-29T10:14:20.404Z,32.30
2022-11-29T10:18:27.658Z,33.10
2022-11-29T10:22:41.571Z,36.80
2022-11-29T10:26:43.538Z,35.27
2022-11-29T10:30:47.258Z,33.33
2022-11-29T10:34:48.064Z,30.13
2022-11-29T10:38:52.131Z,32.93
2022-11-29T10:42:53.399Z,32.70
2022-11-29T10:46:58.030Z,34.00
2022-11-29T10:50:58.150Z,29.43
2022-11-29T10:55:02.227Z,34.30
2022-11-29T10:59:05.278Z,31.17
2022-11-29T11:03:25.016Z,30.90
2022-11-29T11:07:30.168Z,30.03
2022-11-29T11:11:34.818Z,30.43
2022-11-29T11:15:36.111Z,30.47
2022-11-29T11:19:39.059Z,29.73
2022-11-29T11:23:49.506Z,31.70
2022-11-29T11:27:50.475Z,30.87
2022-11-29T11:32:00.499Z,29.53
2022-11-29T11:36:14.998Z,29.77
2022-11-29T11:40:29.445Z,32.13
2022-11-29T11:44:47.527Z,36.17
2022-11-29T11:48:48.772Z,32.40
2022-11-29T11:52:56.376Z,41.30
2022-11-29T11:56:56.535Z,35.63
2022-11-29T12:01:04.670Z,29.93
2022-11-29T12:05:09.141Z,33.27
2022-11-29T12:09:22.723Z,31.80
2022-11-29T12:13:29.499Z,29.20
2022-11-29T12:17:38.152Z,26.90
2022-11-29T12:21:46.325Z,28.80
2022-11-29T12:25:54.839Z,26.80
2022-11-29T12:29:55.026Z,28.43
2022-11-29T12:34:10.874Z,27.50
2022-11-29T12:38:29.641Z,25.43
2022-11-29T12:42:47.426Z,27.90
2022-11-29T12:47:34.244Z,24.83
2022-11-29T12:51:34.011Z,28.67
2022-11-29T12:55:47.671Z,24.27
2022-11-29T13:00:10.152Z,23.50
2022-11-29T13:04:23.916Z,27.00
2022-11-29T13:09:00.335Z,22.53
2022-11-29T13:13:07.371Z,22.27
2022-11-29T13:17:29.744Z,23.63
2022-11-29T13:21:42.056Z,25.43
2022-11-29T13:25:45.842Z,27.83
2022-11-29T13:29:46.208Z,23.60
2022-11-29T13:34:00.040Z,21.87
2022-11-29T13:38:10.669Z,22.83
2022-11-29T13:42:23.655Z,22.83
2022-11-29T13:46:34.085Z,23.30
2022-11-29T13:50:46.699Z,28.50
2022-11-29T13:54:47.182Z,25.20
2022-11-29T13:58:47.582Z,23.77
2022-11-29T14:02:47.777Z,22.93
2022-11-29T14:06:52.344Z,25.93
2022-11-29T14:10:54.751Z,22.13
2022-11-29T14:15:01.292Z,21.90
2022-11-29T14:19:33.440Z,19.17
2022-11-29T14:23:54.657Z,22.93
2022-11-29T14:28:31.905Z,30.00
2022-11-29T14:32:46.160Z,24.13
2022-11-29T14:37:01.791Z,28.73
2022-11-29T14:41:22.993Z,24.13
2022-11-29T14:45:31.208Z,21.83
2022-11-29T14:49:34.479Z,22.43
2022-11-29T14:53:39.988Z,22.33
2022-11-29T14:58:23.303Z,26.67
2022-11-29T15:02:36.202Z,25.77
2022-11-29T15:06:45.127Z,21.87
2022-11-29T15:10:54.417Z,22.20
2022-11-29T15:15:12.891Z,22.03
2022-11-29T15:19:45.094Z,24.33
2022-11-29T15:23:48.139Z,22.43
2022-11-29T15:27:59.713Z,27.77
2022-11-29T15:32:08.160Z,24.80
2022-11-29T15:36:12.136Z,28.00
2022-11-29T15:40:17.392Z,27.97
2022-11-29T15:44:25.046Z,26.90
2022-11-29T15:48:31.000Z,23.43
2022-11-29T15:52:40.071Z,21.37
2022-11-29T15:56:47.559Z,19.27
2022-11-29T16:00:50.276Z,21.03
2022-11-29T16:04:57.482Z,18.17
2022-11-29T16:08:58.357Z,17.83
2022-11-29T16:13:01.265Z,26.67
2022-11-29T16:17:03.942Z,25.30
2022-11-29T16:21:08.847Z,22.00
2022-11-29T16:25:20.278Z,19.90
2022-11-29T16:29:25.370Z,21.20
2022-11-29T16:33:27.630Z,31.63
2022-11-29T16:37:37.116Z,38.47
2022-11-29T16:41:40.220Z,39.23
2022-11-29T16:45:43.798Z,35.00
2022-11-29T16:49:44.745Z,31.80
2022-11-29T16:53:51.968Z,22.53
2022-11-29T16:57:52.507Z,21.27
2022-11-29T17:01:55.765Z,20.50
2022-11-29T17:06:01.985Z,22.77
2022-11-29T17:10:38.893Z,20.47
2022-11-29T17:14:52.545Z,18.50
2022-11-29T17:18:55.536Z,16.77
2022-11-29T17:22:55.674Z,19.13
2022-11-29T17:26:58.619Z,21.13
2022-11-29T17:30:58.752Z,21.63
2022-11-29T17:34:58.858Z,16.07
2022-11-29T17:38:59.418Z,17.00
2022-11-29T17:43:02.114Z,16.57
2022-11-29T17:47:02.591Z,17.63
2022-11-29T17:51:06.935Z,15.53
2022-11-29T17:55:20.759Z,16.23
2022-11-29T17:59:27.366Z,15.83
2022-11-29T18:03:29.843Z,16.03
2022-11-29T18:07:33.097Z,16.07
2022-11-29T18:11:46.458Z,20.13
2022-11-29T18:15:54.286Z,15.77
2022-11-29T18:19:55.432Z,15.07
2022-11-29T18:24:00.117Z,13.67
2022-11-29T18:38:48.880Z,16.40
2022-11-29T18:42:51.131Z,12.80
2022-11-29T18:46:51.536Z,19.53
2022-11-29T18:50:54.170Z,14.23
2022-11-29T18:54:54.284Z,15.90
2022-11-29T18:58:59.314Z,13.83
2022-11-29T19:03:02.974Z,14.57
2022-11-29T19:07:07.666Z,14.40
2022-11-29T19:11:11.133Z,13.33
2022-11-29T19:15:17.447Z,14.07
2022-11-29T19:19:18.786Z,14.07
2022-11-29T19:23:24.574Z,12.00
2022-11-29T19:27:26.385Z,16.23
2022-11-29T19:31:28.669Z,23.83
2022-11-29T19:35:29.831Z,14.90
2022-11-29T19:39:34.059Z,14.47
2022-11-29T19:43:34.934Z,16.30
2022-11-29T19:47:35.457Z,13.37
2022-11-29T19:51:37.415Z,12.50
2022-11-29T19:55:44.079Z,12.30
2022-11-29T19:59:44.966Z,12.17
2022-11-29T20:03:45.510Z,13.63
2022-11-29T20:07:45.704Z,12.80
2022-11-29T20:11:48.510Z,14.60
2022-11-29T20:15:48.818Z,13.10
2022-11-29T20:19:49.584Z,14.97
2022-11-29T20:23:50.695Z,15.30
2022-11-29T20:27:54.106Z,12.63
2022-11-29T20:31:54.395Z,15.43
2022-11-29T20:36:02.651Z,15.57
2022-11-29T20:40:07.631Z,13.33
2022-11-29T20:44:19.903Z,14.77
2022-11-29T20:48:25.828Z,12.63
2022-11-29T20:52:41.073Z,13.40
2022-11-29T20:56:41.190Z,14.07
2022-11-29T21:00:44.177Z,13.23
2022-11-29T21:04:44.560Z,13.17
2022-11-29T21:08:44.993Z,15.67
2022-11-29T21:12:47.378Z,14.23
2022-11-29T21:16:50.959Z,14.63
2022-11-29T21:21:12.665Z,14.73
2022-11-29T21:25:22.570Z,14.40
2022-11-29T21:29:25.196Z,11.67
2022-11-29T21:33:30.823Z,13.70
2022-11-29T21:37:36.049Z,15.00
2022-11-29T21:41:41.085Z,15.50
2022-11-29T21:45:44.424Z,14.47
2022-11-29T21:49:49.812Z,15.40
2022-11-29T21:53:53.204Z,14.23
2022-11-29T21:58:00.091Z,13.33
2022-11-29T22:02:09.287Z,13.13
2022-11-29T22:06:27.707Z,15.37
2022-11-29T22:14:58.501Z,15.70
2022-11-29T22:21:49.204Z,15.63
2022-11-29T22:26:29.598Z,15.17
2022-11-29T22:31:10.104Z,18.30
2022-11-29T22:35:36.147Z,16.60
2022-11-29T22:40:01.652Z,15.50
2022-11-29T22:44:02.422Z,14.97
2022-11-29T22:48:02.639Z,15.90
2022-11-29T22:52:02.763Z,13.97
2022-11-29T22:56:08.501Z,13.40
2022-11-29T23:00:11.473Z,12.87
2022-11-29T23:04:13.712Z,13.43
2022-11-29T23:08:13.957Z,15.33
2022-11-29T23:12:16.619Z,14.90
2022-11-29T23:16:19.875Z,13.60
2022-11-29T23:20:20.241Z,15.77
2022-11-29T23:24:20.603Z,13.77
2022-11-29T23:28:24.364Z,14.70
2022-11-29T23:32:24.434Z,15.43
2022-11-29T23:36:24.667Z,14.80
2022-11-29T23:40:24.856Z,16.17
2022-11-29T23:44:27.514Z,16.00
2022-11-29T23:48:28.269Z,16.50
2022-11-29T23:52:28.463Z,21.63
2022-11-29T23:56:29.038Z,18.03
